sensor_id;sensor_type;location;lat;lon;timestamp;temperature;humidity
2389;DHT22;1205;47.984;7.668;2023-05-23T00:01:02;18.80;99.90
2389;DHT22;1205;47.984;7.668;2023-05-23T00:03:27;18.50;99.90
2389;DHT22;1205;47.984;7.668;2023-05-23T00:05:55;18.50;99.90
2389;DHT22;1205;47.984;7.668;2023-05-23T00:08:21;18.40;99.90
2389;DHT22;1205;47.984;7.668;2023-05-23T00:10:47;18.30;99.90
2389;DHT22;1205;47.984;7.668;2023-05-23T00:13:13;18.20;99.90
2389;DHT22;1205;47.984;7.668;2023-05-23T00:15:39;18.10;99.90
2389;DHT22;1205;47.984;7.668;2023-05-23T00:18:09;18.00;99.90
2389;DHT22;1205;47.984;7.668;2023-05-23T00:20:39;18.00;99.90
2389;DHT22;1205;47.984;7.668;2023-05-23T00:23:06;17.90;99.90
2389;DHT22;1205;47.984;7.668;2023-05-23T00:25:33;17.90;99.90
2389;DHT22;1205;47.984;7.668;2023-05-23T00:28:00;17.90;99.90
2389;DHT22;1205;47.984;7.668;2023-05-23T00:30:27;17.90;99.90
2389;DHT22;1205;47.984;7.668;2023-05-23T00:32:54;17.90;99.90
2389;DHT22;1205;47.984;7.668;2023-05-23T00:35:20;17.90;99.90
2389;DHT22;1205;47.984;7.668;2023-05-23T00:37:49;17.80;99.90
2389;DHT22;1205;47.984;7.668;2023-05-23T00:40:19;17.80;99.90
2389;DHT22;1205;47.984;7.668;2023-05-23T00:42:45;17.80;99.90
2389;DHT22;1205;47.984;7.668;2023-05-23T00:45:11;17.80;99.90
2389;DHT22;1205;47.984;7.668;2023-05-23T00:47:40;17.70;99.90
2389;DHT22;1205;47.984;7.668;2023-05-23T00:50:10;17.70;99.90
2389;DHT22;1205;47.984;7.668;2023-05-23T00:52:36;17.70;99.90
2389;DHT22;1205;47.984;7.668;2023-05-23T00:55:02;17.70;99.90
2389;DHT22;1205;47.984;7.668;2023-05-23T00:57:27;17.60;99.90
2389;DHT22;1205;47.984;7.668;2023-05-23T00:59:53;17.50;99.90
2389;DHT22;1205;47.984;7.668;2023-05-23T01:02:19;17.40;99.90
2389;DHT22;1205;47.984;7.668;2023-05-23T01:04:47;17.40;99.90
2389;DHT22;1205;47.984;7.668;2023-05-23T01:07:21;17.40;99.90
2389;DHT22;1205;47.984;7.668;2023-05-23T01:09:47;17.30;99.90
2389;DHT22;1205;47.984;7.668;2023-05-23T01:12:16;17.30;99.90
2389;DHT22;1205;47.984;7.668;2023-05-23T01:14:48;17.30;99.90
2389;DHT22;1205;47.984;7.668;2023-05-23T01:17:38;17.30;99.90
2389;DHT22;1205;47.984;7.668;2023-05-23T01:20:13;17.30;99.90
2389;DHT22;1205;47.984;7.668;2023-05-23T01:28:01;17.30;99.90
2389;DHT22;1205;47.984;7.668;2023-05-23T01:30:30;17.30;99.90
2389;DHT22;1205;47.984;7.668;2023-05-23T01:32:57;17.40;99.90
2389;DHT22;1205;47.984;7.668;2023-05-23T01:35:25;17.40;99.90
2389;DHT22;1205;47.984;7.668;2023-05-23T01:37:54;17.50;99.90
2389;DHT22;1205;47.984;7.668;2023-05-23T01:40:20;17.60;99.90
2389;DHT22;1205;47.984;7.668;2023-05-23T01:42:46;17.60;99.90
2389;DHT22;1205;47.984;7.668;2023-05-23T01:45:12;17.70;99.90
2389;DHT22;1205;47.984;7.668;2023-05-23T01:47:39;17.90;99.90
2389;DHT22;1205;47.984;7.668;2023-05-23T01:50:06;18.00;99.90
2389;DHT22;1205;47.984;7.668;2023-05-23T01:52:33;18.10;99.90
2389;DHT22;1205;47.984;7.668;2023-05-23T01:54:59;18.20;99.90
2389;DHT22;1205;47.984;7.668;2023-05-23T01:57:28;18.30;99.90
2389;DHT22;1205;47.984;7.668;2023-05-23T01:59:54;18.30;99.90
2389;DHT22;1205;47.984;7.668;2023-05-23T02:02:20;18.40;99.90
2389;DHT22;1205;47.984;7.668;2023-05-23T02:04:48;18.30;99.90
2389;DHT22;1205;47.984;7.668;2023-05-23T02:07:13;18.30;99.90
2389;DHT22;1205;47.984;7.668;2023-05-23T02:09:39;18.30;99.90
2389;DHT22;1205;47.984;7.668;2023-05-23T02:12:05;18.30;99.90
2389;DHT22;1205;47.984;7.668;2023-05-23T02:14:30;18.30;99.90
2389;DHT22;1205;47.984;7.668;2023-05-23T02:16:56;18.20;99.90
2389;DHT22;1205;47.984;7.668;2023-05-23T02:19:21;18.20;99.90
2389;DHT22;1205;47.984;7.668;2023-05-23T02:21:47;18.20;99.90
2389;DHT22;1205;47.984;7.668;2023-05-23T02:24:12;18.20;99.90
2389;DHT22;1205;47.984;7.668;2023-05-23T02:26:38;18.20;99.90
2389;DHT22;1205;47.984;7.668;2023-05-23T02:29:04;18.20;99.90
2389;DHT22;1205;47.984;7.668;2023-05-23T02:31:30;18.20;99.90
2389;DHT22;1205;47.984;7.668;2023-05-23T02:33:55;18.20;99.90
2389;DHT22;1205;47.984;7.668;2023-05-23T02:36:21;18.10;99.90
2389;DHT22;1205;47.984;7.668;2023-05-23T02:38:46;18.10;99.90
2389;DHT22;1205;47.984;7.668;2023-05-23T02:41:12;18.10;99.90
2389;DHT22;1205;47.984;7.668;2023-05-23T02:43:38;18.00;99.90
2389;DHT22;1205;47.984;7.668;2023-05-23T02:46:03;18.00;99.90
2389;DHT22;1205;47.984;7.668;2023-05-23T02:48:29;18.00;99.90
2389;DHT22;1205;47.984;7.668;2023-05-23T02:50:55;18.00;99.90
2389;DHT22;1205;47.984;7.668;2023-05-23T02:53:20;18.00;99.90
2389;DHT22;1205;47.984;7.668;2023-05-23T02:55:46;18.00;99.90
2389;DHT22;1205;47.984;7.668;2023-05-23T02:58:12;18.00;99.90
2389;DHT22;1205;47.984;7.668;2023-05-23T03:00:37;18.00;99.90
2389;DHT22;1205;47.984;7.668;2023-05-23T03:03:03;18.00;99.90
2389;DHT22;1205;47.984;7.668;2023-05-23T03:05:29;18.00;99.90
2389;DHT22;1205;47.984;7.668;2023-05-23T03:07:55;18.00;99.90
2389;DHT22;1205;47.984;7.668;2023-05-23T03:10:21;18.00;99.90
2389;DHT22;1205;47.984;7.668;2023-05-23T03:12:47;18.00;99.90
2389;DHT22;1205;47.984;7.668;2023-05-23T03:15:13;18.00;99.90
2389;DHT22;1205;47.984;7.668;2023-05-23T03:17:38;18.00;99.90
2389;DHT22;1205;47.984;7.668;2023-05-23T03:20:04;17.80;99.90
2389;DHT22;1205;47.984;7.668;2023-05-23T03:22:31;17.70;99.90
2389;DHT22;1205;47.984;7.668;2023-05-23T03:24:57;17.70;99.90
2389;DHT22;1205;47.984;7.668;2023-05-23T03:27:22;17.60;99.90
2389;DHT22;1205;47.984;7.668;2023-05-23T03:29:48;17.60;99.90
2389;DHT22;1205;47.984;7.668;2023-05-23T03:32:13;17.50;99.90
2389;DHT22;1205;47.984;7.668;2023-05-23T03:34:39;17.40;99.90
2389;DHT22;1205;47.984;7.668;2023-05-23T03:37:04;17.50;99.90
2389;DHT22;1205;47.984;7.668;2023-05-23T03:39:30;17.40;99.90
2389;DHT22;1205;47.984;7.668;2023-05-23T03:41:55;17.50;99.90
2389;DHT22;1205;47.984;7.668;2023-05-23T03:44:21;17.50;99.90
2389;DHT22;1205;47.984;7.668;2023-05-23T03:46:46;17.50;99.90
2389;DHT22;1205;47.984;7.668;2023-05-23T03:49:12;17.60;99.90
2389;DHT22;1205;47.984;7.668;2023-05-23T03:51:38;17.60;99.90
2389;DHT22;1205;47.984;7.668;2023-05-23T03:54:03;17.70;99.90
2389;DHT22;1205;47.984;7.668;2023-05-23T03:56:29;17.70;99.90
2389;DHT22;1205;47.984;7.668;2023-05-23T03:58:54;17.80;99.90
2389;DHT22;1205;47.984;7.668;2023-05-23T04:01:20;17.80;99.90
2389;DHT22;1205;47.984;7.668;2023-05-23T04:03:46;17.90;99.90
2389;DHT22;1205;47.984;7.668;2023-05-23T04:06:12;17.90;99.90
2389;DHT22;1205;47.984;7.668;2023-05-23T04:08:37;17.90;99.90
2389;DHT22;1205;47.984;7.668;2023-05-23T04:11:06;18.00;99.90
2389;DHT22;1205;47.984;7.668;2023-05-23T04:13:32;18.00;99.90
2389;DHT22;1205;47.984;7.668;2023-05-23T04:16:00;18.00;99.90
2389;DHT22;1205;47.984;7.668;2023-05-23T04:18:26;18.10;99.90
2389;DHT22;1205;47.984;7.668;2023-05-23T04:20:52;18.10;99.90
2389;DHT22;1205;47.984;7.668;2023-05-23T04:23:18;18.10;99.90
2389;DHT22;1205;47.984;7.668;2023-05-23T04:25:44;18.10;99.90
2389;DHT22;1205;47.984;7.668;2023-05-23T04:28:10;18.10;99.90
2389;DHT22;1205;47.984;7.668;2023-05-23T04:30:36;18.10;99.90
2389;DHT22;1205;47.984;7.668;2023-05-23T04:33:02;18.20;99.90
2389;DHT22;1205;47.984;7.668;2023-05-23T04:35:28;18.20;99.90
2389;DHT22;1205;47.984;7.668;2023-05-23T04:37:54;18.20;99.90
2389;DHT22;1205;47.984;7.668;2023-05-23T04:40:23;18.20;99.90
2389;DHT22;1205;47.984;7.668;2023-05-23T04:42:49;18.30;99.90
2389;DHT22;1205;47.984;7.668;2023-05-23T04:45:19;18.30;99.90
2389;DHT22;1205;47.984;7.668;2023-05-23T04:47:45;18.30;99.90
2389;DHT22;1205;47.984;7.668;2023-05-23T04:50:11;18.30;99.90
2389;DHT22;1205;47.984;7.668;2023-05-23T04:52:36;18.30;99.90
2389;DHT22;1205;47.984;7.668;2023-05-23T04:55:02;18.40;99.90
2389;DHT22;1205;47.984;7.668;2023-05-23T04:57:27;18.40;99.90
2389;DHT22;1205;47.984;7.668;2023-05-23T04:59:53;18.40;99.90
2389;DHT22;1205;47.984;7.668;2023-05-23T05:02:19;18.60;99.90
2389;DHT22;1205;47.984;7.668;2023-05-23T05:04:44;18.70;99.90
2389;DHT22;1205;47.984;7.668;2023-05-23T05:07:10;18.80;99.90
2389;DHT22;1205;47.984;7.668;2023-05-23T05:09:35;18.70;99.90
2389;DHT22;1205;47.984;7.668;2023-05-23T05:12:01;18.80;99.90
2389;DHT22;1205;47.984;7.668;2023-05-23T05:14:27;18.80;99.90
2389;DHT22;1205;47.984;7.668;2023-05-23T05:16:52;18.80;99.90
2389;DHT22;1205;47.984;7.668;2023-05-23T05:19:22;18.80;99.90
2389;DHT22;1205;47.984;7.668;2023-05-23T05:21:48;18.80;99.90
2389;DHT22;1205;47.984;7.668;2023-05-23T05:24:13;18.80;99.90
2389;DHT22;1205;47.984;7.668;2023-05-23T05:26:40;18.80;99.90
2389;DHT22;1205;47.984;7.668;2023-05-23T05:29:05;18.70;99.90
2389;DHT22;1205;47.984;7.668;2023-05-23T05:31:31;18.80;99.90
2389;DHT22;1205;47.984;7.668;2023-05-23T05:33:57;18.90;99.90
2389;DHT22;1205;47.984;7.668;2023-05-23T05:36:23;18.80;99.90
2389;DHT22;1205;47.984;7.668;2023-05-23T05:38:48;18.90;99.90
2389;DHT22;1205;47.984;7.668;2023-05-23T05:41:14;18.90;99.90
2389;DHT22;1205;47.984;7.668;2023-05-23T05:43:39;18.90;99.90
2389;DHT22;1205;47.984;7.668;2023-05-23T05:46:05;18.90;99.90
2389;DHT22;1205;47.984;7.668;2023-05-23T05:48:31;19.00;99.90
2389;DHT22;1205;47.984;7.668;2023-05-23T05:50:56;19.00;99.90
2389;DHT22;1205;47.984;7.668;2023-05-23T05:53:25;19.10;99.90
2389;DHT22;1205;47.984;7.668;2023-05-23T05:55:53;19.10;99.90
2389;DHT22;1205;47.984;7.668;2023-05-23T05:58:19;19.00;99.90
2389;DHT22;1205;47.984;7.668;2023-05-23T06:00:45;19.00;99.90
2389;DHT22;1205;47.984;7.668;2023-05-23T06:03:11;18.90;99.90
2389;DHT22;1205;47.984;7.668;2023-05-23T06:05:37;19.00;99.90
2389;DHT22;1205;47.984;7.668;2023-05-23T06:08:04;18.90;99.90
2389;DHT22;1205;47.984;7.668;2023-05-23T06:10:29;18.90;99.90
2389;DHT22;1205;47.984;7.668;2023-05-23T06:12:55;19.00;99.90
2389;DHT22;1205;47.984;7.668;2023-05-23T06:15:20;19.10;99.90
2389;DHT22;1205;47.984;7.668;2023-05-23T06:17:46;19.00;99.90
2389;DHT22;1205;47.984;7.668;2023-05-23T06:20:11;19.00;99.90
2389;DHT22;1205;47.984;7.668;2023-05-23T06:22:37;19.00;99.90
2389;DHT22;1205;47.984;7.668;2023-05-23T06:25:03;19.00;99.90
2389;DHT22;1205;47.984;7.668;2023-05-23T06:27:29;18.90;99.90
2389;DHT22;1205;47.984;7.668;2023-05-23T06:29:55;19.00;99.90
2389;DHT22;1205;47.984;7.668;2023-05-23T06:32:20;19.10;99.90
2389;DHT22;1205;47.984;7.668;2023-05-23T06:34:46;19.20;99.90
2389;DHT22;1205;47.984;7.668;2023-05-23T06:37:11;19.30;99.90
2389;DHT22;1205;47.984;7.668;2023-05-23T06:39:37;19.40;99.90
2389;DHT22;1205;47.984;7.668;2023-05-23T06:42:03;19.40;99.90
2389;DHT22;1205;47.984;7.668;2023-05-23T06:44:28;19.40;99.90
2389;DHT22;1205;47.984;7.668;2023-05-23T06:46:54;19.40;99.90
2389;DHT22;1205;47.984;7.668;2023-05-23T06:49:22;19.30;99.90
2389;DHT22;1205;47.984;7.668;2023-05-23T06:51:49;19.30;99.90
2389;DHT22;1205;47.984;7.668;2023-05-23T06:54:14;19.40;99.90
2389;DHT22;1205;47.984;7.668;2023-05-23T06:56:40;19.50;99.90
2389;DHT22;1205;47.984;7.668;2023-05-23T06:59:05;19.70;99.90
2389;DHT22;1205;47.984;7.668;2023-05-23T07:01:31;19.70;99.90
2389;DHT22;1205;47.984;7.668;2023-05-23T07:03:56;19.90;99.90
2389;DHT22;1205;47.984;7.668;2023-05-23T07:06:22;20.00;99.90
2389;DHT22;1205;47.984;7.668;2023-05-23T07:08:47;20.20;99.90
2389;DHT22;1205;47.984;7.668;2023-05-23T07:11:13;20.80;99.90
2389;DHT22;1205;47.984;7.668;2023-05-23T07:13:39;21.10;99.90
2389;DHT22;1205;47.984;7.668;2023-05-23T07:16:04;21.30;99.90
2389;DHT22;1205;47.984;7.668;2023-05-23T07:18:30;21.30;99.90
2389;DHT22;1205;47.984;7.668;2023-05-23T07:20:56;21.00;99.90
2389;DHT22;1205;47.984;7.668;2023-05-23T07:23:22;21.00;99.90
2389;DHT22;1205;47.984;7.668;2023-05-23T07:25:48;21.10;99.90
2389;DHT22;1205;47.984;7.668;2023-05-23T07:28:14;21.10;99.90
2389;DHT22;1205;47.984;7.668;2023-05-23T07:30:40;21.10;99.90
2389;DHT22;1205;47.984;7.668;2023-05-23T07:33:06;21.00;99.90
2389;DHT22;1205;47.984;7.668;2023-05-23T07:35:31;21.50;99.90
2389;DHT22;1205;47.984;7.668;2023-05-23T07:37:57;21.70;99.90
2389;DHT22;1205;47.984;7.668;2023-05-23T07:40:23;21.80;99.90
2389;DHT22;1205;47.984;7.668;2023-05-23T07:42:48;21.80;99.90
2389;DHT22;1205;47.984;7.668;2023-05-23T07:45:14;21.80;99.90
2389;DHT22;1205;47.984;7.668;2023-05-23T07:47:40;21.70;99.90
2389;DHT22;1205;47.984;7.668;2023-05-23T07:50:06;21.60;99.90
2389;DHT22;1205;47.984;7.668;2023-05-23T07:52:32;21.70;99.90
2389;DHT22;1205;47.984;7.668;2023-05-23T07:54:58;21.80;99.90
2389;DHT22;1205;47.984;7.668;2023-05-23T07:57:24;21.90;99.90
2389;DHT22;1205;47.984;7.668;2023-05-23T07:59:51;22.20;99.90
2389;DHT22;1205;47.984;7.668;2023-05-23T08:02:17;22.20;99.90
2389;DHT22;1205;47.984;7.668;2023-05-23T08:04:43;22.00;99.90
2389;DHT22;1205;47.984;7.668;2023-05-23T08:07:09;22.10;99.90
2389;DHT22;1205;47.984;7.668;2023-05-23T08:09:39;22.10;99.90
2389;DHT22;1205;47.984;7.668;2023-05-23T08:12:08;22.10;99.90
2389;DHT22;1205;47.984;7.668;2023-05-23T08:14:34;22.00;99.90
2389;DHT22;1205;47.984;7.668;2023-05-23T08:17:00;21.60;99.90
2389;DHT22;1205;47.984;7.668;2023-05-23T08:19:27;21.50;99.90
2389;DHT22;1205;47.984;7.668;2023-05-23T08:21:52;21.30;99.90
2389;DHT22;1205;47.984;7.668;2023-05-23T08:24:21;21.40;99.90
2389;DHT22;1205;47.984;7.668;2023-05-23T08:26:46;21.30;99.90
2389;DHT22;1205;47.984;7.668;2023-05-23T08:29:13;21.30;99.90
2389;DHT22;1205;47.984;7.668;2023-05-23T08:31:38;21.30;99.90
2389;DHT22;1205;47.984;7.668;2023-05-23T08:34:04;21.40;99.90
2389;DHT22;1205;47.984;7.668;2023-05-23T08:36:30;21.60;99.90
2389;DHT22;1205;47.984;7.668;2023-05-23T08:39:01;21.90;99.90
2389;DHT22;1205;47.984;7.668;2023-05-23T08:41:26;22.10;99.90
2389;DHT22;1205;47.984;7.668;2023-05-23T08:43:52;22.00;99.90
2389;DHT22;1205;47.984;7.668;2023-05-23T08:46:18;22.10;99.90
2389;DHT22;1205;47.984;7.668;2023-05-23T08:48:51;22.00;99.90
2389;DHT22;1205;47.984;7.668;2023-05-23T08:51:20;22.00;99.90
2389;DHT22;1205;47.984;7.668;2023-05-23T08:53:47;22.00;99.90
2389;DHT22;1205;47.984;7.668;2023-05-23T08:56:13;21.70;99.90
2389;DHT22;1205;47.984;7.668;2023-05-23T08:58:40;21.70;99.90
2389;DHT22;1205;47.984;7.668;2023-05-23T09:01:08;21.80;99.90
2389;DHT22;1205;47.984;7.668;2023-05-23T09:03:39;21.60;99.90
2389;DHT22;1205;47.984;7.668;2023-05-23T09:06:08;21.80;99.90
2389;DHT22;1205;47.984;7.668;2023-05-23T09:08:35;21.80;99.90
2389;DHT22;1205;47.984;7.668;2023-05-23T09:11:02;22.10;99.90
2389;DHT22;1205;47.984;7.668;2023-05-23T09:13:32;22.20;99.90
2389;DHT22;1205;47.984;7.668;2023-05-23T09:18:33;22.20;99.90
2389;DHT22;1205;47.984;7.668;2023-05-23T09:20:59;22.10;99.90
2389;DHT22;1205;47.984;7.668;2023-05-23T09:23:27;22.40;99.90
2389;DHT22;1205;47.984;7.668;2023-05-23T09:25:53;22.40;99.90
2389;DHT22;1205;47.984;7.668;2023-05-23T09:28:19;22.60;99.90
2389;DHT22;1205;47.984;7.668;2023-05-23T09:30:44;22.50;99.90
2389;DHT22;1205;47.984;7.668;2023-05-23T09:33:13;22.60;99.90
2389;DHT22;1205;47.984;7.668;2023-05-23T09:35:43;22.70;99.90
2389;DHT22;1205;47.984;7.668;2023-05-23T09:38:09;22.80;99.90
2389;DHT22;1205;47.984;7.668;2023-05-23T09:40:35;22.70;99.90
2389;DHT22;1205;47.984;7.668;2023-05-23T09:43:02;22.70;99.90
2389;DHT22;1205;47.984;7.668;2023-05-23T09:45:32;22.60;99.90
2389;DHT22;1205;47.984;7.668;2023-05-23T09:47:57;22.80;99.90
2389;DHT22;1205;47.984;7.668;2023-05-23T09:50:25;22.70;99.90
2389;DHT22;1205;47.984;7.668;2023-05-23T09:52:54;22.90;99.90
2389;DHT22;1205;47.984;7.668;2023-05-23T09:55:20;23.20;99.90
2389;DHT22;1205;47.984;7.668;2023-05-23T09:57:50;23.30;99.90
2389;DHT22;1205;47.984;7.668;2023-05-23T10:00:17;23.20;99.90
2389;DHT22;1205;47.984;7.668;2023-05-23T10:03:10;23.20;99.90
2389;DHT22;1205;47.984;7.668;2023-05-23T10:05:49;22.80;99.90
2389;DHT22;1205;47.984;7.668;2023-05-23T10:08:41;22.70;99.90
2389;DHT22;1205;47.984;7.668;2023-05-23T10:13:43;22.70;99.90
2389;DHT22;1205;47.984;7.668;2023-05-23T10:16:42;22.70;99.90
2389;DHT22;1205;47.984;7.668;2023-05-23T10:19:24;22.60;99.90
2389;DHT22;1205;47.984;7.668;2023-05-23T10:22:00;22.60;99.90
2389;DHT22;1205;47.984;7.668;2023-05-23T10:24:28;22.60;99.90
2389;DHT22;1205;47.984;7.668;2023-05-23T10:26:54;22.80;99.90
2389;DHT22;1205;47.984;7.668;2023-05-23T10:29:23;22.90;99.90
2389;DHT22;1205;47.984;7.668;2023-05-23T10:31:50;23.30;99.90
2389;DHT22;1205;47.984;7.668;2023-05-23T10:37:24;23.30;99.90
2389;DHT22;1205;47.984;7.668;2023-05-23T10:45:29;22.80;99.90
2389;DHT22;1205;47.984;7.668;2023-05-23T10:47:59;22.70;99.90
2389;DHT22;1205;47.984;7.668;2023-05-23T10:50:33;22.70;99.90
2389;DHT22;1205;47.984;7.668;2023-05-23T10:53:04;22.70;99.90
2389;DHT22;1205;47.984;7.668;2023-05-23T10:55:36;22.70;99.90
2389;DHT22;1205;47.984;7.668;2023-05-23T10:58:15;22.70;99.90
2389;DHT22;1205;47.984;7.668;2023-05-23T11:01:00;22.60;99.90
2389;DHT22;1205;47.984;7.668;2023-05-23T11:03:30;22.40;99.90
2389;DHT22;1205;47.984;7.668;2023-05-23T11:06:00;22.40;99.90
2389;DHT22;1205;47.984;7.668;2023-05-23T11:08:26;22.60;99.90
2389;DHT22;1205;47.984;7.668;2023-05-23T11:11:03;22.50;99.90
2389;DHT22;1205;47.984;7.668;2023-05-23T11:13:57;22.50;99.90
2389;DHT22;1205;47.984;7.668;2023-05-23T11:16:30;22.70;99.90
2389;DHT22;1205;47.984;7.668;2023-05-23T11:21:46;22.60;99.90
2389;DHT22;1205;47.984;7.668;2023-05-23T11:24:13;22.60;99.90
2389;DHT22;1205;47.984;7.668;2023-05-23T11:26:38;22.50;99.90
2389;DHT22;1205;47.984;7.668;2023-05-23T11:29:08;22.50;99.90
2389;DHT22;1205;47.984;7.668;2023-05-23T11:31:39;22.40;99.90
2389;DHT22;1205;47.984;7.668;2023-05-23T11:34:06;22.30;99.90
2389;DHT22;1205;47.984;7.668;2023-05-23T11:36:31;22.30;99.90
2389;DHT22;1205;47.984;7.668;2023-05-23T11:39:01;22.30;99.90
2389;DHT22;1205;47.984;7.668;2023-05-23T11:41:30;22.30;99.90
2389;DHT22;1205;47.984;7.668;2023-05-23T11:43:55;22.40;99.90
2389;DHT22;1205;47.984;7.668;2023-05-23T11:46:21;22.40;99.90
2389;DHT22;1205;47.984;7.668;2023-05-23T11:48:47;22.30;99.90
2389;DHT22;1205;47.984;7.668;2023-05-23T11:51:14;22.40;99.90
2389;DHT22;1205;47.984;7.668;2023-05-23T11:53:40;22.50;99.90
2389;DHT22;1205;47.984;7.668;2023-05-23T11:56:06;22.40;99.90
2389;DHT22;1205;47.984;7.668;2023-05-23T11:58:33;22.50;99.90
2389;DHT22;1205;47.984;7.668;2023-05-23T12:01:00;22.60;99.90
2389;DHT22;1205;47.984;7.668;2023-05-23T12:03:27;22.60;99.90
2389;DHT22;1205;47.984;7.668;2023-05-23T12:05:57;22.50;99.90
2389;DHT22;1205;47.984;7.668;2023-05-23T12:08:23;22.40;99.90
2389;DHT22;1205;47.984;7.668;2023-05-23T12:10:56;22.20;99.90
2389;DHT22;1205;47.984;7.668;2023-05-23T12:13:27;22.20;99.90
2389;DHT22;1205;47.984;7.668;2023-05-23T12:15:58;22.20;99.90
2389;DHT22;1205;47.984;7.668;2023-05-23T12:18:27;22.20;99.90
2389;DHT22;1205;47.984;7.668;2023-05-23T12:20:53;22.10;99.60
2389;DHT22;1205;47.984;7.668;2023-05-23T12:23:20;22.10;99.60
2389;DHT22;1205;47.984;7.668;2023-05-23T12:25:52;22.10;99.60
2389;DHT22;1205;47.984;7.668;2023-05-23T12:28:18;22.20;99.70
2389;DHT22;1205;47.984;7.668;2023-05-23T12:30:45;22.10;99.70
2389;DHT22;1205;47.984;7.668;2023-05-23T12:33:10;22.10;99.80
2389;DHT22;1205;47.984;7.668;2023-05-23T12:35:36;22.00;99.90
2389;DHT22;1205;47.984;7.668;2023-05-23T12:38:05;22.00;99.90
2389;DHT22;1205;47.984;7.668;2023-05-23T12:40:34;22.30;99.40
2389;DHT22;1205;47.984;7.668;2023-05-23T12:43:00;22.10;99.20
2389;DHT22;1205;47.984;7.668;2023-05-23T12:45:35;22.20;99.30
2389;DHT22;1205;47.984;7.668;2023-05-23T12:48:05;22.00;98.90
2389;DHT22;1205;47.984;7.668;2023-05-23T12:50:32;22.00;98.80
2389;DHT22;1205;47.984;7.668;2023-05-23T12:52:58;22.00;99.10
2389;DHT22;1205;47.984;7.668;2023-05-23T12:55:23;22.00;98.90
2389;DHT22;1205;47.984;7.668;2023-05-23T12:57:49;22.00;99.20
2389;DHT22;1205;47.984;7.668;2023-05-23T13:00:15;22.20;99.60
2389;DHT22;1205;47.984;7.668;2023-05-23T13:02:41;22.20;98.80
2389;DHT22;1205;47.984;7.668;2023-05-23T13:05:07;22.20;98.70
2389;DHT22;1205;47.984;7.668;2023-05-23T13:07:33;22.20;99.00
2389;DHT22;1205;47.984;7.668;2023-05-23T13:09:59;22.30;98.60
2389;DHT22;1205;47.984;7.668;2023-05-23T13:12:24;22.30;98.60
2389;DHT22;1205;47.984;7.668;2023-05-23T13:14:50;22.40;98.50
2389;DHT22;1205;47.984;7.668;2023-05-23T13:17:16;22.30;98.40
2389;DHT22;1205;47.984;7.668;2023-05-23T13:19:42;22.40;98.30
2389;DHT22;1205;47.984;7.668;2023-05-23T13:22:08;22.30;98.20
2389;DHT22;1205;47.984;7.668;2023-05-23T13:24:38;22.40;97.90
2389;DHT22;1205;47.984;7.668;2023-05-23T13:27:05;22.50;97.80
2389;DHT22;1205;47.984;7.668;2023-05-23T13:29:31;22.50;98.50
2389;DHT22;1205;47.984;7.668;2023-05-23T13:31:56;22.30;98.40
2389;DHT22;1205;47.984;7.668;2023-05-23T13:34:23;22.50;98.60
2389;DHT22;1205;47.984;7.668;2023-05-23T13:36:48;22.10;97.60
2389;DHT22;1205;47.984;7.668;2023-05-23T13:39:14;22.10;98.30
2389;DHT22;1205;47.984;7.668;2023-05-23T13:41:39;22.10;97.70
2389;DHT22;1205;47.984;7.668;2023-05-23T13:44:05;22.10;98.30
2389;DHT22;1205;47.984;7.668;2023-05-23T13:46:30;22.20;97.60
2389;DHT22;1205;47.984;7.668;2023-05-23T13:48:56;22.20;97.40
2389;DHT22;1205;47.984;7.668;2023-05-23T13:51:22;22.00;97.60
2389;DHT22;1205;47.984;7.668;2023-05-23T13:53:47;22.10;97.50
2389;DHT22;1205;47.984;7.668;2023-05-23T13:56:14;22.10;97.90
2389;DHT22;1205;47.984;7.668;2023-05-23T13:58:40;22.10;98.20
2389;DHT22;1205;47.984;7.668;2023-05-23T14:01:07;22.10;98.10
2389;DHT22;1205;47.984;7.668;2023-05-23T14:03:33;22.10;97.80
2389;DHT22;1205;47.984;7.668;2023-05-23T14:05:58;22.10;97.70
2389;DHT22;1205;47.984;7.668;2023-05-23T14:08:24;22.20;97.60
2389;DHT22;1205;47.984;7.668;2023-05-23T14:10:50;22.10;97.50
2389;DHT22;1205;47.984;7.668;2023-05-23T14:13:15;22.10;97.00
2389;DHT22;1205;47.984;7.668;2023-05-23T14:15:41;21.80;97.00
2389;DHT22;1205;47.984;7.668;2023-05-23T14:18:07;21.80;97.10
2389;DHT22;1205;47.984;7.668;2023-05-23T14:20:32;21.90;97.40
2389;DHT22;1205;47.984;7.668;2023-05-23T14:22:58;21.80;97.10
2389;DHT22;1205;47.984;7.668;2023-05-23T14:25:23;21.90;97.00
2389;DHT22;1205;47.984;7.668;2023-05-23T14:27:49;21.80;97.20
2389;DHT22;1205;47.984;7.668;2023-05-23T14:30:15;21.80;97.30
2389;DHT22;1205;47.984;7.668;2023-05-23T14:32:40;21.80;97.00
2389;DHT22;1205;47.984;7.668;2023-05-23T14:35:08;21.80;96.90
2389;DHT22;1205;47.984;7.668;2023-05-23T14:37:34;21.80;97.20
2389;DHT22;1205;47.984;7.668;2023-05-23T14:40:00;21.70;97.10
2389;DHT22;1205;47.984;7.668;2023-05-23T14:42:25;21.70;96.90
2389;DHT22;1205;47.984;7.668;2023-05-23T14:44:52;21.60;97.30
2389;DHT22;1205;47.984;7.668;2023-05-23T14:47:18;21.80;96.90
2389;DHT22;1205;47.984;7.668;2023-05-23T14:49:44;21.70;97.10
2389;DHT22;1205;47.984;7.668;2023-05-23T14:52:09;21.60;97.00
2389;DHT22;1205;47.984;7.668;2023-05-23T14:54:37;21.50;96.90
2389;DHT22;1205;47.984;7.668;2023-05-23T14:57:05;21.60;96.70
2389;DHT22;1205;47.984;7.668;2023-05-23T14:59:31;21.50;96.90
2389;DHT22;1205;47.984;7.668;2023-05-23T15:01:57;21.50;96.70
2389;DHT22;1205;47.984;7.668;2023-05-23T15:04:23;21.40;97.00
2389;DHT22;1205;47.984;7.668;2023-05-23T15:06:48;21.50;97.00
2389;DHT22;1205;47.984;7.668;2023-05-23T15:09:16;21.60;96.90
2389;DHT22;1205;47.984;7.668;2023-05-23T15:11:42;21.50;96.20
2389;DHT22;1205;47.984;7.668;2023-05-23T15:14:09;21.60;96.30
2389;DHT22;1205;47.984;7.668;2023-05-23T15:16:35;21.50;96.20
2389;DHT22;1205;47.984;7.668;2023-05-23T15:19:01;21.50;96.30
2389;DHT22;1205;47.984;7.668;2023-05-23T15:21:27;21.40;96.00
2389;DHT22;1205;47.984;7.668;2023-05-23T15:23:53;21.60;96.50
2389;DHT22;1205;47.984;7.668;2023-05-23T15:26:18;21.50;96.10
2389;DHT22;1205;47.984;7.668;2023-05-23T15:28:44;21.50;96.40
2389;DHT22;1205;47.984;7.668;2023-05-23T15:31:10;21.40;96.10
2389;DHT22;1205;47.984;7.668;2023-05-23T15:33:35;21.50;96.20
2389;DHT22;1205;47.984;7.668;2023-05-23T15:36:01;21.60;96.10
2389;DHT22;1205;47.984;7.668;2023-05-23T15:38:26;21.60;96.20
2389;DHT22;1205;47.984;7.668;2023-05-23T15:40:52;21.70;96.30
2389;DHT22;1205;47.984;7.668;2023-05-23T15:43:19;21.70;96.20
2389;DHT22;1205;47.984;7.668;2023-05-23T15:45:45;21.60;95.30
2389;DHT22;1205;47.984;7.668;2023-05-23T15:48:11;21.70;95.60
2389;DHT22;1205;47.984;7.668;2023-05-23T15:50:36;21.70;95.60
2389;DHT22;1205;47.984;7.668;2023-05-23T15:53:02;21.50;95.60
2389;DHT22;1205;47.984;7.668;2023-05-23T15:55:27;21.60;95.70
2389;DHT22;1205;47.984;7.668;2023-05-23T15:57:53;21.60;95.60
2389;DHT22;1205;47.984;7.668;2023-05-23T16:00:19;21.70;95.50
2389;DHT22;1205;47.984;7.668;2023-05-23T16:02:44;21.70;95.90
2389;DHT22;1205;47.984;7.668;2023-05-23T16:05:10;21.60;95.40
2389;DHT22;1205;47.984;7.668;2023-05-23T16:07:35;21.50;95.20
2389;DHT22;1205;47.984;7.668;2023-05-23T16:10:01;21.60;95.10
2389;DHT22;1205;47.984;7.668;2023-05-23T16:12:27;21.50;94.90
2389;DHT22;1205;47.984;7.668;2023-05-23T16:14:52;21.60;95.10
2389;DHT22;1205;47.984;7.668;2023-05-23T16:17:18;21.60;95.10
2389;DHT22;1205;47.984;7.668;2023-05-23T16:19:43;21.70;95.30
2389;DHT22;1205;47.984;7.668;2023-05-23T16:22:09;21.80;95.10